sensor_id;sensor_type;location;lat;lon;timestamp;pressure;altitude;pressure_sealevel;temperature;humidity
25610;BME280;13479;49.044;8.716;2022-11-15T05:03:09;98527.84;;;11.86;66.03
25610;BME280;13479;49.044;8.716;2022-11-15T05:05:53;98541.13;;;11.86;65.37
25610;BME280;13479;49.044;8.716;2022-11-15T05:08:18;98539.75;;;11.82;65.04
25610;BME280;13479;49.044;8.716;2022-11-15T05:10:43;98550.38;;;11.82;65.14
25610;BME280;13479;49.044;8.716;2022-11-15T05:13:08;98541.72;;;11.80;65.44
25610;BME280;13479;49.044;8.716;2022-11-15T05:15:34;98522.75;;;11.74;65.29
25610;BME280;13479;49.044;8.716;2022-11-15T05:17:59;98509.75;;;11.71;65.67
25610;BME280;13479;49.044;8.716;2022-11-15T05:20:25;98516.44;;;11.76;65.48
25610;BME280;13479;49.044;8.716;2022-11-15T05:22:50;98461.66;;;11.47;66.91
25610;BME280;13479;49.044;8.716;2022-11-15T05:25:17;98390.66;;;11.39;67.69
25610;BME280;13479;49.044;8.716;2022-11-15T05:27:43;98358.94;;;11.37;68.30
25610;BME280;13479;49.044;8.716;2022-11-15T05:30:08;98352.25;;;11.33;68.59
25610;BME280;13479;49.044;8.716;2022-11-15T05:32:34;98335.63;;;11.31;69.07
25610;BME280;13479;49.044;8.716;2022-11-15T05:34:59;98350.22;;;11.27;69.31
25610;BME280;13479;49.044;8.716;2022-11-15T05:37:24;98367.13;;;11.26;69.34
25610;BME280;13479;49.044;8.716;2022-11-15T05:39:49;98394.41;;;11.28;68.99
25610;BME280;13479;49.044;8.716;2022-11-15T05:42:15;98418.38;;;11.36;68.47
25610;BME280;13479;49.044;8.716;2022-11-15T05:44:44;98462.34;;;11.31;68.14
25610;BME280;13479;49.044;8.716;2022-11-15T05:47:13;98462.88;;;11.34;67.54
25610;BME280;13479;49.044;8.716;2022-11-15T05:49:41;98516.50;;;11.48;66.74
25610;BME280;13479;49.044;8.716;2022-11-15T05:52:12;98497.94;;;11.20;67.67
25610;BME280;13479;49.044;8.716;2022-11-15T05:54:40;98449.81;;;11.23;68.23
25610;BME280;13479;49.044;8.716;2022-11-15T05:57:06;98427.09;;;11.10;68.31
25610;BME280;13479;49.044;8.716;2022-11-15T05:59:31;98407.28;;;11.05;68.85
25610;BME280;13479;49.044;8.716;2022-11-15T06:01:58;98370.25;;;11.03;69.32
25610;BME280;13479;49.044;8.716;2022-11-15T06:04:24;98374.50;;;10.96;69.43
25610;BME280;13479;49.044;8.716;2022-11-15T06:06:49;98366.22;;;10.99;69.59
25610;BME280;13479;49.044;8.716;2022-11-15T06:09:15;98390.56;;;10.94;69.43
25610;BME280;13479;49.044;8.716;2022-11-15T06:11:40;98389.56;;;10.77;69.69
25610;BME280;13479;49.044;8.716;2022-11-15T06:14:05;98373.56;;;10.69;70.31
25610;BME280;13479;49.044;8.716;2022-11-15T06:16:30;98369.50;;;10.65;70.53
25610;BME280;13479;49.044;8.716;2022-11-15T06:18:56;98362.53;;;10.64;70.73
25610;BME280;13479;49.044;8.716;2022-11-15T06:21:21;98369.22;;;10.68;70.66
25610;BME280;13479;49.044;8.716;2022-11-15T06:23:47;98422.31;;;10.96;69.82
25610;BME280;13479;49.044;8.716;2022-11-15T06:26:12;98477.88;;;11.07;69.33
25610;BME280;13479;49.044;8.716;2022-11-15T06:28:37;98503.84;;;11.13;68.89
25610;BME280;13479;49.044;8.716;2022-11-15T06:31:08;98503.88;;;11.04;69.59
25610;BME280;13479;49.044;8.716;2022-11-15T06:33:34;98473.84;;;11.03;69.62
25610;BME280;13479;49.044;8.716;2022-11-15T06:36:01;98478.88;;;11.06;69.37
25610;BME280;13479;49.044;8.716;2022-11-15T06:38:26;98480.41;;;10.99;69.98
25610;BME280;13479;49.044;8.716;2022-11-15T06:40:51;98488.09;;;11.02;69.12
25610;BME280;13479;49.044;8.716;2022-11-15T06:43:17;98505.31;;;10.98;69.02
25610;BME280;13479;49.044;8.716;2022-11-15T06:45:42;98457.88;;;10.85;70.35
25610;BME280;13479;49.044;8.716;2022-11-15T06:48:07;98438.94;;;10.70;70.83
25610;BME280;13479;49.044;8.716;2022-11-15T06:50:32;98424.19;;;10.86;70.61
25610;BME280;13479;49.044;8.716;2022-11-15T06:53:02;98423.38;;;10.75;71.30
25610;BME280;13479;49.044;8.716;2022-11-15T06:55:28;98416.06;;;10.59;71.83
25610;BME280;13479;49.044;8.716;2022-11-15T06:57:53;98438.28;;;10.86;71.02
25610;BME280;13479;49.044;8.716;2022-11-15T07:00:20;98467.69;;;10.75;71.11
25610;BME280;13479;49.044;8.716;2022-11-15T07:02:46;98423.03;;;10.60;71.92
25610;BME280;13479;49.044;8.716;2022-11-15T07:05:12;98439.44;;;10.84;71.46
25610;BME280;13479;49.044;8.716;2022-11-15T07:07:38;98481.19;;;10.91;70.82
25610;BME280;13479;49.044;8.716;2022-11-15T07:10:04;98491.41;;;10.86;71.42
25610;BME280;13479;49.044;8.716;2022-11-15T07:12:29;98467.31;;;10.97;71.45
25610;BME280;13479;49.044;8.716;2022-11-15T07:14:54;98473.91;;;11.11;71.29
25610;BME280;13479;49.044;8.716;2022-11-15T07:22:27;98628.94;;;12.04;65.79
25610;BME280;13479;49.044;8.716;2022-11-15T07:24:52;98603.31;;;12.03;65.82
25610;BME280;13479;49.044;8.716;2022-11-15T07:27:18;98590.25;;;12.10;65.42
25610;BME280;13479;49.044;8.716;2022-11-15T07:29:43;98589.78;;;12.14;65.45
25610;BME280;13479;49.044;8.716;2022-11-15T07:32:09;98593.81;;;12.18;64.97
25610;BME280;13479;49.044;8.716;2022-11-15T07:34:34;98596.78;;;12.15;64.52
25610;BME280;13479;49.044;8.716;2022-11-15T07:36:59;98564.25;;;12.03;64.93
25610;BME280;13479;49.044;8.716;2022-11-15T07:39:25;98507.91;;;11.90;65.54
25610;BME280;13479;49.044;8.716;2022-11-15T07:41:50;98475.84;;;11.92;65.64
25610;BME280;13479;49.044;8.716;2022-11-15T07:44:35;98465.88;;;11.94;65.99
25610;BME280;13479;49.044;8.716;2022-11-15T07:47:00;98436.41;;;11.87;66.77
25610;BME280;13479;49.044;8.716;2022-11-15T07:49:26;98430.97;;;11.97;66.31
25610;BME280;13479;49.044;8.716;2022-11-15T07:51:51;98404.63;;;12.03;66.83
25610;BME280;13479;49.044;8.716;2022-11-15T07:54:16;98448.34;;;12.27;66.10
25610;BME280;13479;49.044;8.716;2022-11-15T07:56:41;98541.66;;;12.52;64.49
25610;BME280;13479;49.044;8.716;2022-11-15T07:59:07;98560.66;;;12.57;64.43
25610;BME280;13479;49.044;8.716;2022-11-15T08:01:32;98571.38;;;12.65;64.36
25610;BME280;13479;49.044;8.716;2022-11-15T08:03:57;98534.03;;;12.57;64.57
25610;BME280;13479;49.044;8.716;2022-11-15T08:06:22;98488.22;;;12.45;65.63
25610;BME280;13479;49.044;8.716;2022-11-15T08:08:47;98409.81;;;12.40;66.57
25610;BME280;13479;49.044;8.716;2022-11-15T08:11:13;98375.72;;;12.43;67.38
25610;BME280;13479;49.044;8.716;2022-11-15T08:13:38;98390.28;;;12.65;66.54
25610;BME280;13479;49.044;8.716;2022-11-15T08:16:03;98412.94;;;12.78;66.61
25610;BME280;13479;49.044;8.716;2022-11-15T08:18:30;98471.50;;;13.04;65.12
25610;BME280;13479;49.044;8.716;2022-11-15T08:21:00;98508.81;;;13.04;64.95
25610;BME280;13479;49.044;8.716;2022-11-15T08:23:26;98534.00;;;13.18;64.67
25610;BME280;13479;49.044;8.716;2022-11-15T08:25:51;98522.63;;;13.08;65.23
25610;BME280;13479;49.044;8.716;2022-11-15T08:28:16;98515.03;;;13.21;64.47
25610;BME280;13479;49.044;8.716;2022-11-15T08:30:43;98472.34;;;13.13;65.95
25610;BME280;13479;49.044;8.716;2022-11-15T08:33:12;98426.41;;;13.19;66.55
25610;BME280;13479;49.044;8.716;2022-11-15T08:35:39;98403.75;;;13.32;66.77
25610;BME280;13479;49.044;8.716;2022-11-15T08:38:04;98388.59;;;13.40;66.79
25610;BME280;13479;49.044;8.716;2022-11-15T08:40:30;98378.78;;;13.57;66.59
25610;BME280;13479;49.044;8.716;2022-11-15T08:42:55;98390.94;;;13.68;66.49
25610;BME280;13479;49.044;8.716;2022-11-15T08:45:20;98438.78;;;13.86;65.05
25610;BME280;13479;49.044;8.716;2022-11-15T08:47:45;98496.50;;;13.96;64.51
25610;BME280;13479;49.044;8.716;2022-11-15T08:50:11;98511.31;;;13.98;64.37
25610;BME280;13479;49.044;8.716;2022-11-15T08:52:36;98509.50;;;14.07;64.59
25610;BME280;13479;49.044;8.716;2022-11-15T08:55:01;98488.81;;;14.09;64.77
25610;BME280;13479;49.044;8.716;2022-11-15T08:57:29;98466.09;;;14.13;64.89
25610;BME280;13479;49.044;8.716;2022-11-15T08:59:55;98496.16;;;14.24;64.10
25610;BME280;13479;49.044;8.716;2022-11-15T09:02:21;98489.94;;;14.31;64.28
25610;BME280;13479;49.044;8.716;2022-11-15T09:04:46;98521.13;;;14.47;62.67
25610;BME280;13479;49.044;8.716;2022-11-15T09:07:11;98510.94;;;14.51;63.07
25610;BME280;13479;49.044;8.716;2022-11-15T09:09:38;98522.63;;;14.58;61.89
25610;BME280;13479;49.044;8.716;2022-11-15T09:12:05;98512.59;;;14.60;61.70
25610;BME280;13479;49.044;8.716;2022-11-15T09:14:30;98478.25;;;14.49;62.05
25610;BME280;13479;49.044;8.716;2022-11-15T09:16:56;98490.25;;;14.45;62.10
25610;BME280;13479;49.044;8.716;2022-11-15T09:19:21;98465.41;;;14.36;62.45
25610;BME280;13479;49.044;8.716;2022-11-15T09:21:47;98431.41;;;14.21;63.05
25610;BME280;13479;49.044;8.716;2022-11-15T09:24:12;98394.03;;;14.21;63.24
25610;BME280;13479;49.044;8.716;2022-11-15T09:26:37;98422.88;;;14.26;62.83
25610;BME280;13479;49.044;8.716;2022-11-15T09:29:03;98467.75;;;14.31;61.62
25610;BME280;13479;49.044;8.716;2022-11-15T09:31:28;98470.91;;;14.34;61.60
25610;BME280;13479;49.044;8.716;2022-11-15T09:33:54;98460.94;;;14.28;62.34
25610;BME280;13479;49.044;8.716;2022-11-15T09:36:19;98446.88;;;14.34;62.11
25610;BME280;13479;49.044;8.716;2022-11-15T09:38:45;98441.69;;;14.41;62.00
25610;BME280;13479;49.044;8.716;2022-11-15T09:41:18;98437.00;;;14.51;62.15
25610;BME280;13479;49.044;8.716;2022-11-15T09:44:14;98436.34;;;14.41;61.90
25610;BME280;13479;49.044;8.716;2022-11-15T09:49:54;98473.19;;;14.71;61.02
25610;BME280;13479;49.044;8.716;2022-11-15T09:52:20;98477.50;;;14.80;60.84
25610;BME280;13479;49.044;8.716;2022-11-15T09:54:51;98490.47;;;14.91;60.21
25610;BME280;13479;49.044;8.716;2022-11-15T09:57:32;98469.91;;;14.92;60.12
25610;BME280;13479;49.044;8.716;2022-11-15T10:00:31;98493.44;;;15.05;59.16
25610;BME280;13479;49.044;8.716;2022-11-15T10:03:16;98451.19;;;15.00;59.64
25610;BME280;13479;49.044;8.716;2022-11-15T10:05:46;98476.47;;;15.21;58.67
25610;BME280;13479;49.044;8.716;2022-11-15T10:08:22;98464.44;;;15.17;58.90
25610;BME280;13479;49.044;8.716;2022-11-15T10:10:53;98431.38;;;15.18;58.87
25610;BME280;13479;49.044;8.716;2022-11-15T10:13:31;98451.34;;;15.30;58.38
25610;BME280;13479;49.044;8.716;2022-11-15T10:16:08;98414.25;;;15.27;59.25
25610;BME280;13479;49.044;8.716;2022-11-15T10:18:38;98387.09;;;15.38;59.11
25610;BME280;13479;49.044;8.716;2022-11-15T10:21:17;98426.81;;;15.50;58.52
25610;BME280;13479;49.044;8.716;2022-11-15T10:23:42;98415.75;;;15.53;59.06
25610;BME280;13479;49.044;8.716;2022-11-15T10:26:16;98404.97;;;15.61;58.68
25610;BME280;13479;49.044;8.716;2022-11-15T10:28:42;98407.59;;;15.69;58.94
25610;BME280;13479;49.044;8.716;2022-11-15T10:31:25;98420.91;;;15.78;58.56
25610;BME280;13479;49.044;8.716;2022-11-15T10:33:51;98404.78;;;15.86;59.20
25610;BME280;13479;49.044;8.716;2022-11-15T10:36:23;98368.63;;;15.90;59.50
25610;BME280;13479;49.044;8.716;2022-11-15T10:41:20;98357.84;;;15.98;59.62
25610;BME280;13479;49.044;8.716;2022-11-15T10:44:12;98351.19;;;15.94;59.39
25610;BME280;13479;49.044;8.716;2022-11-15T10:46:44;98348.22;;;15.89;59.77
25610;BME280;13479;49.044;8.716;2022-11-15T10:49:29;98352.75;;;15.88;59.49
25610;BME280;13479;49.044;8.716;2022-11-15T10:57:22;98301.72;;;15.90;60.13
25610;BME280;13479;49.044;8.716;2022-11-15T10:59:51;98305.97;;;15.99;60.42
25610;BME280;13479;49.044;8.716;2022-11-15T11:05:04;98282.31;;;16.03;60.59
25610;BME280;13479;49.044;8.716;2022-11-15T11:07:33;98329.59;;;16.11;59.68
25610;BME280;13479;49.044;8.716;2022-11-15T11:10:01;98351.84;;;16.11;59.88
25610;BME280;13479;49.044;8.716;2022-11-15T11:12:29;98336.25;;;16.15;59.89
25610;BME280;13479;49.044;8.716;2022-11-15T11:14:57;98370.13;;;16.23;59.26
25610;BME280;13479;49.044;8.716;2022-11-15T11:17:43;98393.66;;;16.27;58.52
25610;BME280;13479;49.044;8.716;2022-11-15T11:23:21;98389.78;;;16.45;57.99
25610;BME280;13479;49.044;8.716;2022-11-15T11:25:57;98363.53;;;16.55;58.32
25610;BME280;13479;49.044;8.716;2022-11-15T11:31:44;98302.91;;;16.91;58.33
25610;BME280;13479;49.044;8.716;2022-11-15T11:34:29;98371.53;;;17.22;57.27
25610;BME280;13479;49.044;8.716;2022-11-15T11:37:20;98406.34;;;17.58;54.79
25610;BME280;13479;49.044;8.716;2022-11-15T11:40:06;98392.53;;;17.62;53.91
25610;BME280;13479;49.044;8.716;2022-11-15T11:51:27;98357.72;;;17.75;53.88
25610;BME280;13479;49.044;8.716;2022-11-15T11:54:06;98317.72;;;17.80;54.25
25610;BME280;13479;49.044;8.716;2022-11-15T11:56:39;98352.47;;;17.88;53.31
25610;BME280;13479;49.044;8.716;2022-11-15T12:02:28;98276.81;;;17.78;54.26
25610;BME280;13479;49.044;8.716;2022-11-15T12:05:01;98317.72;;;17.80;53.43
25610;BME280;13479;49.044;8.716;2022-11-15T12:07:31;98317.63;;;17.67;53.76
25610;BME280;13479;49.044;8.716;2022-11-15T12:10:15;98311.13;;;17.54;53.90
25610;BME280;13479;49.044;8.716;2022-11-15T12:15:29;98259.84;;;17.14;54.53
25610;BME280;13479;49.044;8.716;2022-11-15T12:17:57;98211.69;;;16.84;55.77
25610;BME280;13479;49.044;8.716;2022-11-15T12:20:26;98147.91;;;16.51;56.70
25610;BME280;13479;49.044;8.716;2022-11-15T12:22:56;98099.28;;;16.26;57.86
25610;BME280;13479;49.044;8.716;2022-11-15T12:25:32;98111.84;;;16.25;57.28
25610;BME280;13479;49.044;8.716;2022-11-15T12:29:09;98102.09;;;16.17;57.53
25610;BME280;13479;49.044;8.716;2022-11-15T12:31:13;98100.50;;;16.01;57.19
25610;BME280;13479;49.044;8.716;2022-11-15T12:33:43;98073.16;;;15.69;58.70
25610;BME280;13479;49.044;8.716;2022-11-15T12:41:26;98074.09;;;15.62;59.58
25610;BME280;13479;49.044;8.716;2022-11-15T12:43:52;98061.94;;;15.59;60.20
25610;BME280;13479;49.044;8.716;2022-11-15T12:49:00;98069.06;;;15.73;60.08
25610;BME280;13479;49.044;8.716;2022-11-15T13:02:21;98068.31;;;15.80;60.66
25610;BME280;13479;49.044;8.716;2022-11-15T13:04:49;98067.69;;;15.78;60.83
25610;BME280;13479;49.044;8.716;2022-11-15T13:17:53;98204.69;;;16.61;58.38
25610;BME280;13479;49.044;8.716;2022-11-15T13:20:29;98214.53;;;16.76;57.84
25610;BME280;13479;49.044;8.716;2022-11-15T13:28:19;98162.78;;;16.75;58.21
25610;BME280;13479;49.044;8.716;2022-11-15T13:31:21;98198.44;;;16.76;57.39
25610;BME280;13479;49.044;8.716;2022-11-15T13:33:47;98154.41;;;16.63;58.53
25610;BME280;13479;49.044;8.716;2022-11-15T13:36:22;98126.38;;;16.59;58.76
25610;BME280;13479;49.044;8.716;2022-11-15T13:41:32;98077.66;;;16.49;59.38
25610;BME280;13479;49.044;8.716;2022-11-15T13:43:59;98037.75;;;16.32;60.02
25610;BME280;13479;49.044;8.716;2022-11-15T13:46:29;98033.66;;;16.36;59.78
25610;BME280;13479;49.044;8.716;2022-11-15T13:49:08;98021.69;;;16.32;59.98
25610;BME280;13479;49.044;8.716;2022-11-15T13:51:46;98003.56;;;16.34;59.94
25610;BME280;13479;49.044;8.716;2022-11-15T13:54:15;98001.13;;;16.40;60.07
25610;BME280;13479;49.044;8.716;2022-11-15T13:56:48;98005.66;;;16.39;60.19
25610;BME280;13479;49.044;8.716;2022-11-15T14:01:58;98074.13;;;16.48;58.94
25610;BME280;13479;49.044;8.716;2022-11-15T14:04:27;98070.38;;;16.43;59.50
25610;BME280;13479;49.044;8.716;2022-11-15T14:07:00;98074.28;;;16.40;59.48
25610;BME280;13479;49.044;8.716;2022-11-15T14:09:34;98098.97;;;16.35;59.02
25610;BME280;13479;49.044;8.716;2022-11-15T14:12:01;98075.13;;;16.19;59.86
25610;BME280;13479;49.044;8.716;2022-11-15T14:14:28;98030.75;;;16.10;60.35
25610;BME280;13479;49.044;8.716;2022-11-15T14:16:56;98012.81;;;16.10;60.07
25610;BME280;13479;49.044;8.716;2022-11-15T14:24:37;98022.53;;;15.89;59.76
25610;BME280;13479;49.044;8.716;2022-11-15T14:27:20;98002.16;;;15.73;60.09
25610;BME280;13479;49.044;8.716;2022-11-15T14:29:47;97983.94;;;15.62;60.31
25610;BME280;13479;49.044;8.716;2022-11-15T14:32:16;97931.03;;;15.57;61.12
25610;BME280;13479;49.044;8.716;2022-11-15T14:34:42;97922.28;;;15.49;61.75
25610;BME280;13479;49.044;8.716;2022-11-15T14:37:27;97931.59;;;15.53;61.52
25610;BME280;13479;49.044;8.716;2022-11-15T14:39:54;97934.84;;;15.48;61.94
25610;BME280;13479;49.044;8.716;2022-11-15T14:42:21;97923.88;;;15.43;62.07
25610;BME280;13479;49.044;8.716;2022-11-15T14:44:46;97923.56;;;15.31;62.18
25610;BME280;13479;49.044;8.716;2022-11-15T14:47:12;97925.88;;;15.34;62.54
25610;BME280;13479;49.044;8.716;2022-11-15T14:49:38;97916.31;;;15.25;62.47
25610;BME280;13479;49.044;8.716;2022-11-15T14:52:28;97937.94;;;15.30;62.64
25610;BME280;13479;49.044;8.716;2022-11-15T14:54:54;97918.59;;;15.28;62.91
25610;BME280;13479;49.044;8.716;2022-11-15T14:57:19;97918.34;;;15.23;62.94
25610;BME280;13479;49.044;8.716;2022-11-15T14:59:45;97920.75;;;15.18;63.17
25610;BME280;13479;49.044;8.716;2022-11-15T15:02:19;97922.28;;;15.27;63.26
25610;BME280;13479;49.044;8.716;2022-11-15T15:04:46;97922.28;;;15.27;63.42
25610;BME280;13479;49.044;8.716;2022-11-15T15:07:11;97936.66;;;15.26;63.29
25610;BME280;13479;49.044;8.716;2022-11-15T15:09:36;97938.72;;;15.24;63.42
25610;BME280;13479;49.044;8.716;2022-11-15T15:12:02;97912.84;;;15.09;64.21
25610;BME280;13479;49.044;8.716;2022-11-15T15:14:27;97925.09;;;15.19;63.62
25610;BME280;13479;49.044;8.716;2022-11-15T15:16:53;97925.84;;;15.12;64.04
25610;BME280;13479;49.044;8.716;2022-11-15T15:19:18;97915.91;;;15.06;64.21
25610;BME280;13479;49.044;8.716;2022-11-15T15:21:43;97915.53;;;15.09;64.41
25610;BME280;13479;49.044;8.716;2022-11-15T15:24:13;97917.75;;;15.06;64.39
25610;BME280;13479;49.044;8.716;2022-11-15T15:26:39;97921.25;;;15.06;64.83
25610;BME280;13479;49.044;8.716;2022-11-15T15:29:04;97912.06;;;14.94;65.32
25610;BME280;13479;49.044;8.716;2022-11-15T15:31:30;97912.06;;;14.94;65.08
25610;BME280;13479;49.044;8.716;2022-11-15T15:33:55;97920.34;;;14.99;64.98
25610;BME280;13479;49.044;8.716;2022-11-15T15:36:20;97911.97;;;14.87;65.45
25610;BME280;13479;49.044;8.716;2022-11-15T15:38:46;97914.28;;;14.90;65.11
25610;BME280;13479;49.044;8.716;2022-11-15T15:41:13;97917.25;;;14.80;64.96
25610;BME280;13479;49.044;8.716;2022-11-15T15:43:38;97924.88;;;14.83;64.74
25610;BME280;13479;49.044;8.716;2022-11-15T15:46:05;97921.97;;;14.78;65.52
25610;BME280;13479;49.044;8.716;2022-11-15T15:48:32;97928.41;;;14.84;64.84
25610;BME280;13479;49.044;8.716;2022-11-15T15:50:58;97938.06;;;14.85;64.98
25610;BME280;13479;49.044;8.716;2022-11-15T15:53:23;97962.28;;;14.83;64.23
25610;BME280;13479;49.044;8.716;2022-11-15T15:55:49;97970.22;;;14.77;64.33
25610;BME280;13479;49.044;8.716;2022-11-15T15:58:14;97957.13;;;14.82;64.42
25610;BME280;13479;49.044;8.716;2022-11-15T16:00:39;97942.03;;;14.74;64.40
25610;BME280;13479;49.044;8.716;2022-11-15T16:03:05;97938.53;;;14.74;64.46
25610;BME280;13479;49.044;8.716;2022-11-15T16:05:30;97954.38;;;14.75;63.94
25610;BME280;13479;49.044;8.716;2022-11-15T16:07:55;97979.44;;;14.74;63.85
25610;BME280;13479;49.044;8.716;2022-11-15T16:10:27;97993.34;;;14.85;63.42
25610;BME280;13479;49.044;8.716;2022-11-15T16:12:54;98008.00;;;14.89;62.68
25610;BME280;13479;49.044;8.716;2022-11-15T16:15:20;97995.66;;;14.88;62.88
25610;BME280;13479;49.044;8.716;2022-11-15T16:17:57;97995.66;;;14.88;62.47
25610;BME280;13479;49.044;8.716;2022-11-15T16:20:39;98002.81;;;14.87;62.48
25610;BME280;13479;49.044;8.716;2022-11-15T16:23:06;97991.41;;;14.93;62.16
25610;BME280;13479;49.044;8.716;2022-11-15T16:25:40;97982.28;;;14.88;62.46
25610;BME280;13479;49.044;8.716;2022-11-15T16:28:16;97959.53;;;14.77;63.16
25610;BME280;13479;49.044;8.716;2022-11-15T16:30:41;97923.78;;;14.78;63.15
25610;BME280;13479;49.044;8.716;2022-11-15T16:33:07;97928.56;;;14.82;62.99
25610;BME280;13479;49.044;8.716;2022-11-15T16:35:32;97942.22;;;14.88;62.74
25610;BME280;13479;49.044;8.716;2022-11-15T16:37:57;97923.06;;;14.84;63.53
25610;BME280;13479;49.044;8.716;2022-11-15T16:40:33;97941.94;;;14.82;62.76
25610;BME280;13479;49.044;8.716;2022-11-15T16:42:59;97912.28;;;14.77;63.55
25610;BME280;13479;49.044;8.716;2022-11-15T16:45:27;97932.53;;;14.87;62.83
25610;BME280;13479;49.044;8.716;2022-11-15T16:47:53;97937.31;;;14.91;62.57
25610;BME280;13479;49.044;8.716;2022-11-15T16:50:22;97950.69;;;14.91;62.92
25610;BME280;13479;49.044;8.716;2022-11-15T16:52:53;97951.88;;;14.89;62.72
25610;BME280;13479;49.044;8.716;2022-11-15T16:55:19;97925.88;;;14.82;63.15
25610;BME280;13479;49.044;8.716;2022-11-15T16:57:45;97914.41;;;14.82;63.20
25610;BME280;13479;49.044;8.716;2022-11-15T17:00:11;97914.41;;;14.82;63.00
25610;BME280;13479;49.044;8.716;2022-11-15T17:02:38;97926.09;;;14.81;62.98
25610;BME280;13479;49.044;8.716;2022-11-15T17:05:03;97931.69;;;14.86;62.87
25610;BME280;13479;49.044;8.716;2022-11-15T17:07:28;97900.31;;;14.73;63.22
25610;BME280;13479;49.044;8.716;2022-11-15T17:09:54;97920.94;;;14.79;62.84
25610;BME280;13479;49.044;8.716;2022-11-15T17:12:19;97933.66;;;14.77;62.58
25610;BME280;13479;49.044;8.716;2022-11-15T17:14:44;97915.88;;;14.70;62.74
25610;BME280;13479;49.044;8.716;2022-11-15T17:17:11;97897.50;;;14.66;63.25
25610;BME280;13479;49.044;8.716;2022-11-15T17:19:36;97896.16;;;14.71;62.89
25610;BME280;13479;49.044;8.716;2022-11-15T17:22:01;97922.03;;;14.70;62.94
25610;BME280;13479;49.044;8.716;2022-11-15T17:24:26;97922.44;;;14.67;62.59
25610;BME280;13479;49.044;8.716;2022-11-15T17:26:52;97906.09;;;14.62;62.96
25610;BME280;13479;49.044;8.716;2022-11-15T17:29:17;97907.56;;;14.64;62.59
25610;BME280;13479;49.044;8.716;2022-11-15T17:31:42;97899.94;;;14.61;62.97
25610;BME280;13479;49.044;8.716;2022-11-15T17:34:08;97879.13;;;14.57;63.55
25610;BME280;13479;49.044;8.716;2022-11-15T17:36:34;97857.38;;;14.60;63.32
25610;BME280;13479;49.044;8.716;2022-11-15T17:38:59;97858.13;;;14.54;63.32
25610;BME280;13479;49.044;8.716;2022-11-15T17:41:25;97874.25;;;14.60;63.12
25610;BME280;13479;49.044;8.716;2022-11-15T17:43:50;97845.34;;;14.49;63.67
25610;BME280;13479;49.044;8.716;2022-11-15T17:46:17;97820.56;;;14.40;64.18
25610;BME280;13479;49.044;8.716;2022-11-15T17:48:47;97800.50;;;14.44;64.09
25610;BME280;13479;49.044;8.716;2022-11-15T17:51:14;97826.63;;;14.64;63.52
25610;BME280;13479;49.044;8.716;2022-11-15T17:53:42;97836.00;;;14.60;63.33
25610;BME280;13479;49.044;8.716;2022-11-15T17:56:12;97857.31;;;14.68;63.11
25610;BME280;13479;49.044;8.716;2022-11-15T17:58:38;97844.56;;;14.55;63.44
25610;BME280;13479;49.044;8.716;2022-11-15T18:03:35;97864.75;;;14.58;63.29
25610;BME280;13479;49.044;8.716;2022-11-15T18:06:00;97832.72;;;14.43;63.79
25610;BME280;13479;49.044;8.716;2022-11-15T18:08:25;97791.22;;;14.25;64.50
25610;BME280;13479;49.044;8.716;2022-11-15T18:11:01;97772.56;;;14.25;64.79
25610;BME280;13479;49.044;8.716;2022-11-15T18:13:26;97791.50;;;14.45;64.02
25610;BME280;13479;49.044;8.716;2022-11-15T18:15:54;97853.69;;;14.61;63.15
25610;BME280;13479;49.044;8.716;2022-11-15T18:18:20;97864.75;;;14.58;63.19
25610;BME280;13479;49.044;8.716;2022-11-15T18:20:45;97822.72;;;14.30;64.58
25610;BME280;13479;49.044;8.716;2022-11-15T18:23:11;97789.66;;;14.31;64.46
25610;BME280;13479;49.044;8.716;2022-11-15T18:25:36;97769.97;;;14.32;65.18
25610;BME280;13479;49.044;8.716;2022-11-15T18:28:01;97772.97;;;14.44;64.59
25610;BME280;13479;49.044;8.716;2022-11-15T18:30:26;97803.06;;;14.52;64.21
25610;BME280;13479;49.044;8.716;2022-11-15T18:32:51;97802.16;;;14.45;64.64
25610;BME280;13479;49.044;8.716;2022-11-15T18:35:18;97771.22;;;14.36;64.81
25610;BME280;13479;49.044;8.716;2022-11-15T18:37:43;97772.50;;;14.40;64.67
25610;BME280;13479;49.044;8.716;2022-11-15T18:40:09;97784.28;;;14.46;64.54
25610;BME280;13479;49.044;8.716;2022-11-15T18:42:34;97791.94;;;14.49;64.60
25610;BME280;13479;49.044;8.716;2022-11-15T18:44:59;97774.09;;;14.34;65.11
25610;BME280;13479;49.044;8.716;2022-11-15T18:47:25;97747.16;;;14.29;65.96
25610;BME280;13479;49.044;8.716;2022-11-15T18:49:51;97738.53;;;14.12;67.01
25610;BME280;13479;49.044;8.716;2022-11-15T18:52:16;97743.06;;;13.97;68.96
25610;BME280;13479;49.044;8.716;2022-11-15T18:54:41;97781.06;;;13.99;69.08
25610;BME280;13479;49.044;8.716;2022-11-15T18:57:06;97815.63;;;14.07;67.49
25610;BME280;13479;49.044;8.716;2022-11-15T18:59:32;97810.19;;;14.00;67.79
25610;BME280;13479;49.044;8.716;2022-11-15T19:01:57;97822.63;;;14.08;67.32
25610;BME280;13479;49.044;8.716;2022-11-15T19:04:22;97817.50;;;14.07;67.13
25610;BME280;13479;49.044;8.716;2022-11-15T19:06:49;97842.97;;;14.09;67.02
25610;BME280;13479;49.044;8.716;2022-11-15T19:09:16;97840.00;;;14.04;67.09
25610;BME280;13479;49.044;8.716;2022-11-15T19:11:42;97810.41;;;13.99;67.38
25610;BME280;13479;49.044;8.716;2022-11-15T19:14:13;97797.06;;;13.99;67.57
25610;BME280;13479;49.044;8.716;2022-11-15T19:16:40;97774.78;;;13.92;67.52
25610;BME280;13479;49.044;8.716;2022-11-15T19:19:17;97781.06;;;13.99;67.60
25610;BME280;13479;49.044;8.716;2022-11-15T19:21:42;97764.50;;;13.88;67.94
25610;BME280;13479;49.044;8.716;2022-11-15T19:24:08;97778.19;;;14.00;67.50
25610;BME280;13479;49.044;8.716;2022-11-15T19:26:34;97781.69;;;14.01;67.84
25610;BME280;13479;49.044;8.716;2022-11-15T19:29:02;97775.31;;;14.02;68.00
25610;BME280;13479;49.044;8.716;2022-11-15T19:31:29;97770.75;;;13.96;68.19
25610;BME280;13479;49.044;8.716;2022-11-15T19:34:01;97749.22;;;13.82;68.59
25610;BME280;13479;49.044;8.716;2022-11-15T19:36:30;97771.09;;;13.93;67.87